sensor_id;sensor_type;location;lat;lon;timestamp;P1;durP1;ratioP1;P2;durP2;ratioP2
5414;SDS011;2730;51.512;7.504;2023-03-23T00:00:51;4.05;;;2.75;;
5414;SDS011;2730;51.512;7.504;2023-03-23T00:03:19;4.05;;;2.40;;
5414;SDS011;2730;51.512;7.504;2023-03-23T00:05:46;3.42;;;2.50;;
5414;SDS011;2730;51.512;7.504;2023-03-23T00:08:16;7.20;;;2.90;;
5414;SDS011;2730;51.512;7.504;2023-03-23T00:10:47;6.38;;;2.75;;
5414;SDS011;2730;51.512;7.504;2023-03-23T00:13:14;3.50;;;3.00;;
5414;SDS011;2730;51.512;7.504;2023-03-23T00:15:44;3.67;;;2.90;;
5414;SDS011;2730;51.512;7.504;2023-03-23T00:18:13;2.50;;;2.33;;
5414;SDS011;2730;51.512;7.504;2023-03-23T00:20:46;2.90;;;2.70;;
5414;SDS011;2730;51.512;7.504;2023-03-23T00:23:14;6.38;;;2.78;;
5414;SDS011;2730;51.512;7.504;2023-03-23T00:25:46;6.63;;;2.53;;
5414;SDS011;2730;51.512;7.504;2023-03-23T00:28:13;3.33;;;2.60;;
5414;SDS011;2730;51.512;7.504;2023-03-23T00:30:41;3.95;;;2.35;;
5414;SDS011;2730;51.512;7.504;2023-03-23T00:33:09;7.68;;;2.72;;
5414;SDS011;2730;51.512;7.504;2023-03-23T00:35:37;3.60;;;2.63;;
5414;SDS011;2730;51.512;7.504;2023-03-23T00:38:04;3.90;;;2.72;;
5414;SDS011;2730;51.512;7.504;2023-03-23T00:40:31;2.70;;;2.50;;
5414;SDS011;2730;51.512;7.504;2023-03-23T00:43:01;2.85;;;2.45;;
5414;SDS011;2730;51.512;7.504;2023-03-23T00:45:29;5.45;;;2.30;;
5414;SDS011;2730;51.512;7.504;2023-03-23T00:47:56;4.72;;;2.45;;
5414;SDS011;2730;51.512;7.504;2023-03-23T00:50:26;2.30;;;2.20;;
5414;SDS011;2730;51.512;7.504;2023-03-23T00:52:54;2.53;;;2.33;;
5414;SDS011;2730;51.512;7.504;2023-03-23T00:55:21;1.90;;;1.80;;
5414;SDS011;2730;51.512;7.504;2023-03-23T00:57:48;3.47;;;2.40;;
5414;SDS011;2730;51.512;7.504;2023-03-23T01:00:17;5.57;;;2.00;;
5414;SDS011;2730;51.512;7.504;2023-03-23T01:02:45;2.90;;;2.05;;
5414;SDS011;2730;51.512;7.504;2023-03-23T01:05:12;2.40;;;2.20;;
5414;SDS011;2730;51.512;7.504;2023-03-23T01:07:40;4.13;;;2.00;;
5414;SDS011;2730;51.512;7.504;2023-03-23T01:10:09;2.92;;;2.00;;
5414;SDS011;2730;51.512;7.504;2023-03-23T01:12:41;1.95;;;1.80;;
5414;SDS011;2730;51.512;7.504;2023-03-23T01:15:08;3.20;;;2.10;;
5414;SDS011;2730;51.512;7.504;2023-03-23T01:17:40;2.45;;;2.30;;
5414;SDS011;2730;51.512;7.504;2023-03-23T01:20:08;6.05;;;1.90;;
5414;SDS011;2730;51.512;7.504;2023-03-23T01:22:36;1.65;;;1.55;;
5414;SDS011;2730;51.512;7.504;2023-03-23T01:25:03;3.22;;;1.80;;
5414;SDS011;2730;51.512;7.504;2023-03-23T01:27:31;4.25;;;2.05;;
5414;SDS011;2730;51.512;7.504;2023-03-23T01:29:58;4.53;;;1.80;;
5414;SDS011;2730;51.512;7.504;2023-03-23T01:32:24;3.25;;;1.80;;
5414;SDS011;2730;51.512;7.504;2023-03-23T01:34:52;3.70;;;2.17;;
5414;SDS011;2730;51.512;7.504;2023-03-23T01:37:19;5.78;;;2.17;;
5414;SDS011;2730;51.512;7.504;2023-03-23T01:39:51;2.45;;;2.08;;
5414;SDS011;2730;51.512;7.504;2023-03-23T01:42:18;2.97;;;2.10;;
5414;SDS011;2730;51.512;7.504;2023-03-23T01:47:51;7.45;;;1.90;;
5414;SDS011;2730;51.512;7.504;2023-03-23T01:50:26;6.57;;;2.28;;
5414;SDS011;2730;51.512;7.504;2023-03-23T01:52:56;2.97;;;1.77;;
5414;SDS011;2730;51.512;7.504;2023-03-23T01:55:25;3.28;;;2.10;;
5414;SDS011;2730;51.512;7.504;2023-03-23T01:57:53;1.80;;;1.70;;
5414;SDS011;2730;51.512;7.504;2023-03-23T02:00:21;2.13;;;1.95;;
5414;SDS011;2730;51.512;7.504;2023-03-23T02:02:49;4.55;;;2.58;;
5414;SDS011;2730;51.512;7.504;2023-03-23T02:05:19;2.10;;;1.90;;
5414;SDS011;2730;51.512;7.504;2023-03-23T02:07:51;4.93;;;2.22;;
5414;SDS011;2730;51.512;7.504;2023-03-23T02:10:19;2.78;;;2.58;;
5414;SDS011;2730;51.512;7.504;2023-03-23T02:12:46;2.33;;;2.10;;
5414;SDS011;2730;51.512;7.504;2023-03-23T02:15:12;3.28;;;1.70;;
5414;SDS011;2730;51.512;7.504;2023-03-23T02:17:41;3.03;;;2.10;;
5414;SDS011;2730;51.512;7.504;2023-03-23T02:20:21;4.20;;;2.08;;
5414;SDS011;2730;51.512;7.504;2023-03-23T02:23:07;1.90;;;1.80;;
5414;SDS011;2730;51.512;7.504;2023-03-23T02:25:51;2.35;;;1.33;;
5414;SDS011;2730;51.512;7.504;2023-03-23T02:28:33;8.38;;;2.17;;
5414;SDS011;2730;51.512;7.504;2023-03-23T02:31:21;2.22;;;1.80;;
5414;SDS011;2730;51.512;7.504;2023-03-23T02:34:08;1.75;;;1.65;;
5414;SDS011;2730;51.512;7.504;2023-03-23T02:36:40;2.47;;;1.60;;
5414;SDS011;2730;51.512;7.504;2023-03-23T02:39:12;1.95;;;1.73;;
5414;SDS011;2730;51.512;7.504;2023-03-23T02:41:43;2.83;;;1.80;;
5414;SDS011;2730;51.512;7.504;2023-03-23T02:44:13;1.95;;;1.80;;
5414;SDS011;2730;51.512;7.504;2023-03-23T02:46:41;1.98;;;1.88;;
5414;SDS011;2730;51.512;7.504;2023-03-23T02:49:11;1.60;;;1.50;;
5414;SDS011;2730;51.512;7.504;2023-03-23T02:51:40;2.35;;;2.25;;
5414;SDS011;2730;51.512;7.504;2023-03-23T02:54:12;2.13;;;1.90;;
5414;SDS011;2730;51.512;7.504;2023-03-23T02:56:41;5.32;;;1.98;;
5414;SDS011;2730;51.512;7.504;2023-03-23T02:59:08;3.80;;;1.60;;
5414;SDS011;2730;51.512;7.504;2023-03-23T03:01:52;3.30;;;1.77;;
5414;SDS011;2730;51.512;7.504;2023-03-23T03:04:27;2.58;;;1.55;;
5414;SDS011;2730;51.512;7.504;2023-03-23T03:10:14;2.85;;;1.80;;
5414;SDS011;2730;51.512;7.504;2023-03-23T03:12:51;2.13;;;1.52;;
5414;SDS011;2730;51.512;7.504;2023-03-23T03:15:24;3.22;;;1.83;;
5414;SDS011;2730;51.512;7.504;2023-03-23T03:17:58;2.20;;;2.00;;
5414;SDS011;2730;51.512;7.504;2023-03-23T03:20:32;1.88;;;1.77;;
5414;SDS011;2730;51.512;7.504;2023-03-23T03:23:03;1.70;;;1.60;;
5414;SDS011;2730;51.512;7.504;2023-03-23T03:25:32;3.47;;;1.40;;
5414;SDS011;2730;51.512;7.504;2023-03-23T03:28:00;1.60;;;1.50;;
5414;SDS011;2730;51.512;7.504;2023-03-23T03:30:28;2.15;;;1.95;;
5414;SDS011;2730;51.512;7.504;2023-03-23T03:32:58;2.25;;;2.05;;
5414;SDS011;2730;51.512;7.504;2023-03-23T03:35:28;3.30;;;1.63;;
5414;SDS011;2730;51.512;7.504;2023-03-23T03:37:58;2.03;;;1.50;;
5414;SDS011;2730;51.512;7.504;2023-03-23T03:40:31;1.40;;;1.30;;
5414;SDS011;2730;51.512;7.504;2023-03-23T03:42:58;1.73;;;1.63;;
5414;SDS011;2730;51.512;7.504;2023-03-23T03:45:24;2.25;;;2.13;;
5414;SDS011;2730;51.512;7.504;2023-03-23T03:47:51;3.30;;;1.60;;
5414;SDS011;2730;51.512;7.504;2023-03-23T03:50:18;3.33;;;1.80;;
5414;SDS011;2730;51.512;7.504;2023-03-23T03:52:45;1.70;;;1.60;;
5414;SDS011;2730;51.512;7.504;2023-03-23T03:55:13;3.75;;;1.95;;
5414;SDS011;2730;51.512;7.504;2023-03-23T03:57:42;1.70;;;1.60;;
5414;SDS011;2730;51.512;7.504;2023-03-23T04:00:09;6.65;;;1.60;;
5414;SDS011;2730;51.512;7.504;2023-03-23T04:02:40;1.85;;;1.58;;
5414;SDS011;2730;51.512;7.504;2023-03-23T04:05:08;2.33;;;1.75;;
5414;SDS011;2730;51.512;7.504;2023-03-23T04:07:36;2.10;;;1.80;;
5414;SDS011;2730;51.512;7.504;2023-03-23T04:10:04;1.83;;;1.73;;
5414;SDS011;2730;51.512;7.504;2023-03-23T04:12:34;7.93;;;1.95;;
5414;SDS011;2730;51.512;7.504;2023-03-23T04:15:02;4.07;;;1.70;;
5414;SDS011;2730;51.512;7.504;2023-03-23T04:17:29;1.52;;;1.42;;
5414;SDS011;2730;51.512;7.504;2023-03-23T04:19:56;1.65;;;1.55;;
5414;SDS011;2730;51.512;7.504;2023-03-23T04:22:24;1.60;;;1.50;;
5414;SDS011;2730;51.512;7.504;2023-03-23T04:24:55;1.55;;;1.45;;
5414;SDS011;2730;51.512;7.504;2023-03-23T04:27:23;2.33;;;1.70;;
5414;SDS011;2730;51.512;7.504;2023-03-23T04:29:54;2.53;;;1.40;;
5414;SDS011;2730;51.512;7.504;2023-03-23T04:32:23;1.70;;;1.40;;
5414;SDS011;2730;51.512;7.504;2023-03-23T04:34:53;2.55;;;1.70;;
5414;SDS011;2730;51.512;7.504;2023-03-23T04:37:21;2.50;;;1.92;;
5414;SDS011;2730;51.512;7.504;2023-03-23T04:39:50;5.47;;;1.50;;
5414;SDS011;2730;51.512;7.504;2023-03-23T04:42:26;1.30;;;1.20;;
5414;SDS011;2730;51.512;7.504;2023-03-23T04:44:55;2.83;;;1.73;;
5414;SDS011;2730;51.512;7.504;2023-03-23T04:47:22;1.23;;;1.20;;
5414;SDS011;2730;51.512;7.504;2023-03-23T04:49:50;1.60;;;1.50;;
5414;SDS011;2730;51.512;7.504;2023-03-23T04:52:17;1.65;;;1.55;;
5414;SDS011;2730;51.512;7.504;2023-03-23T04:54:45;2.25;;;2.05;;
5414;SDS011;2730;51.512;7.504;2023-03-23T04:57:12;1.50;;;1.40;;
5414;SDS011;2730;51.512;7.504;2023-03-23T04:59:40;3.97;;;1.83;;
5414;SDS011;2730;51.512;7.504;2023-03-23T05:02:09;1.55;;;1.45;;
5414;SDS011;2730;51.512;7.504;2023-03-23T05:04:38;2.47;;;1.35;;
5414;SDS011;2730;51.512;7.504;2023-03-23T05:07:05;2.10;;;1.90;;
5414;SDS011;2730;51.512;7.504;2023-03-23T05:09:32;2.58;;;1.42;;
5414;SDS011;2730;51.512;7.504;2023-03-23T05:12:03;2.35;;;1.50;;
5414;SDS011;2730;51.512;7.504;2023-03-23T05:14:30;2.58;;;1.38;;
5414;SDS011;2730;51.512;7.504;2023-03-23T05:16:57;1.75;;;1.65;;
5414;SDS011;2730;51.512;7.504;2023-03-23T05:19:25;4.40;;;1.42;;
5414;SDS011;2730;51.512;7.504;2023-03-23T05:21:53;2.22;;;1.20;;
5414;SDS011;2730;51.512;7.504;2023-03-23T05:24:20;2.17;;;1.30;;
5414;SDS011;2730;51.512;7.504;2023-03-23T05:26:46;2.65;;;1.50;;
5414;SDS011;2730;51.512;7.504;2023-03-23T05:29:17;1.63;;;1.52;;
5414;SDS011;2730;51.512;7.504;2023-03-23T05:31:44;1.80;;;1.70;;
5414;SDS011;2730;51.512;7.504;2023-03-23T05:34:11;1.40;;;1.30;;
5414;SDS011;2730;51.512;7.504;2023-03-23T05:36:39;7.57;;;1.20;;
5414;SDS011;2730;51.512;7.504;2023-03-23T05:39:06;1.70;;;1.60;;
5414;SDS011;2730;51.512;7.504;2023-03-23T05:41:34;4.25;;;1.75;;
5414;SDS011;2730;51.512;7.504;2023-03-23T05:44:02;1.40;;;1.30;;
5414;SDS011;2730;51.512;7.504;2023-03-23T05:46:29;1.10;;;1.00;;
5414;SDS011;2730;51.512;7.504;2023-03-23T05:48:56;2.53;;;1.65;;
5414;SDS011;2730;51.512;7.504;2023-03-23T05:51:23;1.40;;;1.30;;
5414;SDS011;2730;51.512;7.504;2023-03-23T05:53:51;1.30;;;1.25;;
5414;SDS011;2730;51.512;7.504;2023-03-23T05:56:18;1.42;;;1.33;;
5414;SDS011;2730;51.512;7.504;2023-03-23T05:58:44;1.40;;;1.30;;
5414;SDS011;2730;51.512;7.504;2023-03-23T06:01:11;1.50;;;1.40;;
5414;SDS011;2730;51.512;7.504;2023-03-23T06:03:39;1.65;;;1.55;;
5414;SDS011;2730;51.512;7.504;2023-03-23T06:06:05;1.65;;;1.55;;
5414;SDS011;2730;51.512;7.504;2023-03-23T06:08:35;2.33;;;1.85;;
5414;SDS011;2730;51.512;7.504;2023-03-23T06:11:04;1.73;;;1.52;;
5414;SDS011;2730;51.512;7.504;2023-03-23T06:13:31;4.65;;;1.80;;
5414;SDS011;2730;51.512;7.504;2023-03-23T06:15:57;2.03;;;1.65;;
5414;SDS011;2730;51.512;7.504;2023-03-23T06:18:24;1.80;;;1.70;;
5414;SDS011;2730;51.512;7.504;2023-03-23T06:20:53;1.50;;;1.40;;
5414;SDS011;2730;51.512;7.504;2023-03-23T06:23:20;2.05;;;1.75;;
5414;SDS011;2730;51.512;7.504;2023-03-23T06:25:47;1.95;;;1.70;;
5414;SDS011;2730;51.512;7.504;2023-03-23T06:28:15;2.92;;;1.73;;
5414;SDS011;2730;51.512;7.504;2023-03-23T06:30:42;3.85;;;2.33;;
5414;SDS011;2730;51.512;7.504;2023-03-23T06:33:08;2.95;;;2.75;;
5414;SDS011;2730;51.512;7.504;2023-03-23T06:35:36;1.50;;;1.40;;
5414;SDS011;2730;51.512;7.504;2023-03-23T06:38:02;1.50;;;1.40;;
5414;SDS011;2730;51.512;7.504;2023-03-23T06:40:29;1.60;;;1.50;;
5414;SDS011;2730;51.512;7.504;2023-03-23T06:42:56;4.32;;;1.60;;
5414;SDS011;2730;51.512;7.504;2023-03-23T06:45:25;1.70;;;1.60;;
5414;SDS011;2730;51.512;7.504;2023-03-23T06:47:52;2.20;;;2.05;;
5414;SDS011;2730;51.512;7.504;2023-03-23T06:50:19;1.63;;;1.45;;
5414;SDS011;2730;51.512;7.504;2023-03-23T06:52:46;2.65;;;1.92;;
5414;SDS011;2730;51.512;7.504;2023-03-23T06:55:13;1.50;;;1.40;;
5414;SDS011;2730;51.512;7.504;2023-03-23T06:57:42;1.80;;;1.60;;
5414;SDS011;2730;51.512;7.504;2023-03-23T07:00:09;2.85;;;1.70;;
5414;SDS011;2730;51.512;7.504;2023-03-23T07:02:39;2.58;;;1.75;;
5414;SDS011;2730;51.512;7.504;2023-03-23T07:05:07;2.10;;;2.00;;
5414;SDS011;2730;51.512;7.504;2023-03-23T07:07:35;5.85;;;1.83;;
5414;SDS011;2730;51.512;7.504;2023-03-23T07:10:02;2.85;;;1.65;;
5414;SDS011;2730;51.512;7.504;2023-03-23T07:12:30;4.32;;;2.00;;
5414;SDS011;2730;51.512;7.504;2023-03-23T07:14:58;4.28;;;1.80;;
5414;SDS011;2730;51.512;7.504;2023-03-23T07:17:25;5.22;;;1.80;;
5414;SDS011;2730;51.512;7.504;2023-03-23T07:19:53;1.80;;;1.70;;
5414;SDS011;2730;51.512;7.504;2023-03-23T07:22:20;4.90;;;1.90;;
5414;SDS011;2730;51.512;7.504;2023-03-23T07:24:47;2.42;;;1.48;;
5414;SDS011;2730;51.512;7.504;2023-03-23T07:27:14;3.50;;;1.60;;
5414;SDS011;2730;51.512;7.504;2023-03-23T07:29:40;1.80;;;1.52;;
5414;SDS011;2730;51.512;7.504;2023-03-23T07:32:08;3.15;;;1.42;;
5414;SDS011;2730;51.512;7.504;2023-03-23T07:34:37;4.13;;;2.35;;
5414;SDS011;2730;51.512;7.504;2023-03-23T07:37:05;7.50;;;1.58;;
5414;SDS011;2730;51.512;7.504;2023-03-23T07:39:32;4.18;;;2.20;;
5414;SDS011;2730;51.512;7.504;2023-03-23T07:42:00;4.95;;;1.60;;
5414;SDS011;2730;51.512;7.504;2023-03-23T07:44:27;2.22;;;1.92;;
5414;SDS011;2730;51.512;7.504;2023-03-23T07:46:54;3.03;;;1.58;;
5414;SDS011;2730;51.512;7.504;2023-03-23T07:49:21;3.78;;;1.77;;
5414;SDS011;2730;51.512;7.504;2023-03-23T07:51:47;3.28;;;1.60;;
5414;SDS011;2730;51.512;7.504;2023-03-23T07:54:15;3.35;;;2.30;;
5414;SDS011;2730;51.512;7.504;2023-03-23T07:56:42;2.88;;;1.60;;
5414;SDS011;2730;51.512;7.504;2023-03-23T07:59:10;3.13;;;1.95;;
5414;SDS011;2730;51.512;7.504;2023-03-23T08:01:37;1.98;;;1.42;;
5414;SDS011;2730;51.512;7.504;2023-03-23T08:04:04;5.28;;;2.25;;
5414;SDS011;2730;51.512;7.504;2023-03-23T08:06:32;2.15;;;1.35;;
5414;SDS011;2730;51.512;7.504;2023-03-23T08:09:00;1.95;;;1.52;;
5414;SDS011;2730;51.512;7.504;2023-03-23T08:11:32;6.22;;;1.40;;
5414;SDS011;2730;51.512;7.504;2023-03-23T08:13:59;1.55;;;1.45;;
5414;SDS011;2730;51.512;7.504;2023-03-23T08:16:26;2.05;;;1.48;;
5414;SDS011;2730;51.512;7.504;2023-03-23T08:18:53;3.67;;;1.65;;
5414;SDS011;2730;51.512;7.504;2023-03-23T08:21:20;3.35;;;2.17;;
5414;SDS011;2730;51.512;7.504;2023-03-23T08:23:47;6.38;;;2.20;;
5414;SDS011;2730;51.512;7.504;2023-03-23T08:26:14;2.58;;;1.30;;
5414;SDS011;2730;51.512;7.504;2023-03-23T08:28:43;2.92;;;1.58;;
5414;SDS011;2730;51.512;7.504;2023-03-23T08:31:11;9.98;;;1.70;;
5414;SDS011;2730;51.512;7.504;2023-03-23T08:33:40;12.98;;;2.47;;
5414;SDS011;2730;51.512;7.504;2023-03-23T08:36:07;2.15;;;1.65;;
5414;SDS011;2730;51.512;7.504;2023-03-23T08:38:35;4.72;;;1.83;;
5414;SDS011;2730;51.512;7.504;2023-03-23T08:41:03;3.00;;;1.65;;
5414;SDS011;2730;51.512;7.504;2023-03-23T08:43:32;2.90;;;1.75;;
5414;SDS011;2730;51.512;7.504;2023-03-23T08:46:01;5.57;;;2.00;;
5414;SDS011;2730;51.512;7.504;2023-03-23T08:48:34;3.65;;;1.50;;
5414;SDS011;2730;51.512;7.504;2023-03-23T08:51:01;2.28;;;1.67;;
5414;SDS011;2730;51.512;7.504;2023-03-23T08:53:28;2.58;;;1.95;;
5414;SDS011;2730;51.512;7.504;2023-03-23T08:55:56;6.07;;;1.63;;
5414;SDS011;2730;51.512;7.504;2023-03-23T08:58:29;3.13;;;1.30;;
5414;SDS011;2730;51.512;7.504;2023-03-23T09:00:55;2.10;;;1.90;;
5414;SDS011;2730;51.512;7.504;2023-03-23T09:03:24;2.50;;;2.22;;
5414;SDS011;2730;51.512;7.504;2023-03-23T09:05:51;4.50;;;1.50;;
5414;SDS011;2730;51.512;7.504;2023-03-23T09:08:18;1.70;;;1.45;;
5414;SDS011;2730;51.512;7.504;2023-03-23T09:10:45;2.78;;;1.85;;
5414;SDS011;2730;51.512;7.504;2023-03-23T09:13:14;1.60;;;1.50;;
5414;SDS011;2730;51.512;7.504;2023-03-23T09:15:41;8.60;;;1.73;;
5414;SDS011;2730;51.512;7.504;2023-03-23T09:18:07;3.00;;;1.58;;
5414;SDS011;2730;51.512;7.504;2023-03-23T09:20:36;1.98;;;1.77;;
5414;SDS011;2730;51.512;7.504;2023-03-23T09:23:03;6.67;;;1.83;;
5414;SDS011;2730;51.512;7.504;2023-03-23T09:25:30;3.60;;;1.70;;
5414;SDS011;2730;51.512;7.504;2023-03-23T09:27:57;4.72;;;1.80;;
5414;SDS011;2730;51.512;7.504;2023-03-23T09:30:25;8.65;;;1.75;;
5414;SDS011;2730;51.512;7.504;2023-03-23T09:32:53;3.55;;;1.70;;
5414;SDS011;2730;51.512;7.504;2023-03-23T09:35:21;9.05;;;2.53;;
5414;SDS011;2730;51.512;7.504;2023-03-23T09:37:51;2.70;;;1.58;;
5414;SDS011;2730;51.512;7.504;2023-03-23T09:40:19;5.00;;;1.90;;
5414;SDS011;2730;51.512;7.504;2023-03-23T09:42:54;8.43;;;2.15;;
5414;SDS011;2730;51.512;7.504;2023-03-23T09:45:48;4.53;;;1.88;;
5414;SDS011;2730;51.512;7.504;2023-03-23T09:48:26;4.03;;;1.67;;
5414;SDS011;2730;51.512;7.504;2023-03-23T09:51:02;7.10;;;2.53;;
5414;SDS011;2730;51.512;7.504;2023-03-23T09:53:36;5.75;;;2.47;;
5414;SDS011;2730;51.512;7.504;2023-03-23T09:56:08;3.67;;;1.70;;
5414;SDS011;2730;51.512;7.504;2023-03-23T09:58:39;4.75;;;1.92;;
5414;SDS011;2730;51.512;7.504;2023-03-23T10:01:13;4.67;;;1.33;;
5414;SDS011;2730;51.512;7.504;2023-03-23T10:03:44;3.33;;;1.52;;
5414;SDS011;2730;51.512;7.504;2023-03-23T10:06:12;5.50;;;1.10;;
5414;SDS011;2730;51.512;7.504;2023-03-23T10:08:47;9.40;;;1.80;;
5414;SDS011;2730;51.512;7.504;2023-03-23T10:11:17;2.60;;;1.53;;
5414;SDS011;2730;51.512;7.504;2023-03-23T10:13:54;3.23;;;1.30;;
5414;SDS011;2730;51.512;7.504;2023-03-23T10:16:31;10.30;;;1.50;;
5414;SDS011;2730;51.512;7.504;2023-03-23T10:19:02;7.13;;;1.87;;
5414;SDS011;2730;51.512;7.504;2023-03-23T10:21:38;4.20;;;1.73;;
5414;SDS011;2730;51.512;7.504;2023-03-23T10:24:13;3.13;;;1.90;;
5414;SDS011;2730;51.512;7.504;2023-03-23T10:26:46;6.80;;;1.80;;
5414;SDS011;2730;51.512;7.504;2023-03-23T10:29:18;4.70;;;2.20;;
5414;SDS011;2730;51.512;7.504;2023-03-23T10:31:49;13.95;;;1.90;;
5414;SDS011;2730;51.512;7.504;2023-03-23T10:34:20;5.47;;;2.23;;
5414;SDS011;2730;51.512;7.504;2023-03-23T10:36:54;2.05;;;1.08;;
5414;SDS011;2730;51.512;7.504;2023-03-23T10:39:27;1.95;;;1.20;;
5414;SDS011;2730;51.512;7.504;2023-03-23T10:41:59;8.18;;;1.55;;
5414;SDS011;2730;51.512;7.504;2023-03-23T10:44:32;2.05;;;1.63;;
5414;SDS011;2730;51.512;7.504;2023-03-23T10:47:00;1.92;;;1.20;;
5414;SDS011;2730;51.512;7.504;2023-03-23T10:49:30;8.48;;;1.70;;
5414;SDS011;2730;51.512;7.504;2023-03-23T10:52:03;2.45;;;1.98;;
5414;SDS011;2730;51.512;7.504;2023-03-23T10:54:38;8.95;;;1.40;;
5414;SDS011;2730;51.512;7.504;2023-03-23T10:57:13;4.10;;;1.40;;
5414;SDS011;2730;51.512;7.504;2023-03-23T10:59:48;5.70;;;1.85;;
5414;SDS011;2730;51.512;7.504;2023-03-23T11:02:16;2.42;;;1.45;;
5414;SDS011;2730;51.512;7.504;2023-03-23T11:04:45;3.47;;;1.13;;
5414;SDS011;2730;51.512;7.504;2023-03-23T11:07:20;3.78;;;2.70;;
5414;SDS011;2730;51.512;7.504;2023-03-23T11:09:54;2.75;;;1.45;;
5414;SDS011;2730;51.512;7.504;2023-03-23T11:12:23;2.30;;;2.10;;
5414;SDS011;2730;51.512;7.504;2023-03-23T11:14:51;4.50;;;1.58;;
5414;SDS011;2730;51.512;7.504;2023-03-23T11:17:21;2.25;;;1.20;;
5414;SDS011;2730;51.512;7.504;2023-03-23T11:19:50;5.95;;;1.17;;
5414;SDS011;2730;51.512;7.504;2023-03-23T11:22:19;2.88;;;1.10;;
5414;SDS011;2730;51.512;7.504;2023-03-23T11:24:52;3.50;;;1.95;;
5414;SDS011;2730;51.512;7.504;2023-03-23T11:27:21;1.52;;;1.15;;
5414;SDS011;2730;51.512;7.504;2023-03-23T11:29:50;3.25;;;1.35;;
5414;SDS011;2730;51.512;7.504;2023-03-23T11:32:21;1.90;;;1.48;;
5414;SDS011;2730;51.512;7.504;2023-03-23T11:34:53;1.90;;;1.75;;
5414;SDS011;2730;51.512;7.504;2023-03-23T11:37:25;2.13;;;1.48;;
5414;SDS011;2730;51.512;7.504;2023-03-23T11:39:57;2.15;;;1.85;;
5414;SDS011;2730;51.512;7.504;2023-03-23T11:42:34;2.85;;;1.75;;
5414;SDS011;2730;51.512;7.504;2023-03-23T11:47:55;8.40;;;2.15;;
5414;SDS011;2730;51.512;7.504;2023-03-23T11:50:29;4.30;;;2.70;;
5414;SDS011;2730;51.512;7.504;2023-03-23T11:53:00;2.95;;;2.63;;
5414;SDS011;2730;51.512;7.504;2023-03-23T11:55:35;3.08;;;2.78;;
5414;SDS011;2730;51.512;7.504;2023-03-23T11:58:11;4.50;;;2.72;;
5414;SDS011;2730;51.512;7.504;2023-03-23T12:00:40;2.30;;;2.20;;
5414;SDS011;2730;51.512;7.504;2023-03-23T12:03:30;4.50;;;2.60;;
5414;SDS011;2730;51.512;7.504;2023-03-23T12:06:11;5.32;;;2.72;;
5414;SDS011;2730;51.512;7.504;2023-03-23T12:08:46;5.25;;;3.70;;
5414;SDS011;2730;51.512;7.504;2023-03-23T12:11:23;4.45;;;3.47;;
5414;SDS011;2730;51.512;7.504;2023-03-23T12:14:03;8.18;;;4.00;;
5414;SDS011;2730;51.512;7.504;2023-03-23T12:16:42;5.95;;;4.60;;
5414;SDS011;2730;51.512;7.504;2023-03-23T12:19:18;6.47;;;4.95;;
5414;SDS011;2730;51.512;7.504;2023-03-23T12:21:54;7.80;;;5.45;;
5414;SDS011;2730;51.512;7.504;2023-03-23T12:24:32;5.15;;;4.65;;
5414;SDS011;2730;51.512;7.504;2023-03-23T12:27:10;3.20;;;2.70;;
5414;SDS011;2730;51.512;7.504;2023-03-23T12:29:52;2.45;;;2.28;;
5414;SDS011;2730;51.512;7.504;2023-03-23T12:32:30;3.13;;;2.83;;
5414;SDS011;2730;51.512;7.504;2023-03-23T12:35:11;3.10;;;2.80;;
5414;SDS011;2730;51.512;7.504;2023-03-23T12:37:53;4.38;;;3.60;;
5414;SDS011;2730;51.512;7.504;2023-03-23T12:40:40;3.60;;;3.00;;
5414;SDS011;2730;51.512;7.504;2023-03-23T12:43:26;3.55;;;2.65;;
5414;SDS011;2730;51.512;7.504;2023-03-23T12:46:05;6.75;;;2.63;;
5414;SDS011;2730;51.512;7.504;2023-03-23T12:48:41;2.40;;;2.20;;
5414;SDS011;2730;51.512;7.504;2023-03-23T12:51:13;2.63;;;2.42;;
5414;SDS011;2730;51.512;7.504;2023-03-23T12:53:48;2.25;;;2.05;;
5414;SDS011;2730;51.512;7.504;2023-03-23T12:56:21;2.08;;;1.88;;
5414;SDS011;2730;51.512;7.504;2023-03-23T12:58:53;2.92;;;2.10;;
5414;SDS011;2730;51.512;7.504;2023-03-23T13:01:27;2.25;;;1.73;;
5414;SDS011;2730;51.512;7.504;2023-03-23T13:03:59;3.28;;;2.22;;
5414;SDS011;2730;51.512;7.504;2023-03-23T13:06:31;3.53;;;2.05;;
5414;SDS011;2730;51.512;7.504;2023-03-23T13:09:02;3.50;;;1.75;;
5414;SDS011;2730;51.512;7.504;2023-03-23T13:11:34;1.77;;;1.63;;
5414;SDS011;2730;51.512;7.504;2023-03-23T13:14:09;6.25;;;1.95;;
5414;SDS011;2730;51.512;7.504;2023-03-23T13:16:49;3.10;;;2.20;;
5414;SDS011;2730;51.512;7.504;2023-03-23T13:19:23;2.55;;;1.73;;
5414;SDS011;2730;51.512;7.504;2023-03-23T13:21:57;2.58;;;1.70;;
5414;SDS011;2730;51.512;7.504;2023-03-23T13:24:29;3.67;;;2.65;;
5414;SDS011;2730;51.512;7.504;2023-03-23T13:27:00;2.50;;;2.30;;
5414;SDS011;2730;51.512;7.504;2023-03-23T13:29:27;2.03;;;1.90;;
5414;SDS011;2730;51.512;7.504;2023-03-23T13:32:05;1.88;;;1.77;;
5414;SDS011;2730;51.512;7.504;2023-03-23T13:34:36;2.20;;;2.00;;
5414;SDS011;2730;51.512;7.504;2023-03-23T13:37:06;2.30;;;2.00;;
5414;SDS011;2730;51.512;7.504;2023-03-23T13:39:38;3.08;;;1.70;;
5414;SDS011;2730;51.512;7.504;2023-03-23T13:42:19;7.47;;;1.65;;
5414;SDS011;2730;51.512;7.504;2023-03-23T13:45:05;2.63;;;1.77;;
5414;SDS011;2730;51.512;7.504;2023-03-23T13:47:45;2.10;;;1.40;;
5414;SDS011;2730;51.512;7.504;2023-03-23T13:50:13;2.88;;;1.80;;
5414;SDS011;2730;51.512;7.504;2023-03-23T13:52:54;3.20;;;1.55;;
5414;SDS011;2730;51.512;7.504;2023-03-23T13:55:30;1.63;;;1.52;;
5414;SDS011;2730;51.512;7.504;2023-03-23T13:58:11;1.58;;;1.30;;
5414;SDS011;2730;51.512;7.504;2023-03-23T14:00:48;4.55;;;1.50;;
5414;SDS011;2730;51.512;7.504;2023-03-23T14:03:32;7.68;;;1.77;;
5414;SDS011;2730;51.512;7.504;2023-03-23T14:06:03;1.80;;;1.60;;
5414;SDS011;2730;51.512;7.504;2023-03-23T14:08:39;2.47;;;1.52;;
5414;SDS011;2730;51.512;7.504;2023-03-23T14:11:12;5.57;;;2.05;;
5414;SDS011;2730;51.512;7.504;2023-03-23T14:13:44;4.82;;;1.88;;
5414;SDS011;2730;51.512;7.504;2023-03-23T14:16:17;3.58;;;1.88;;
5414;SDS011;2730;51.512;7.504;2023-03-23T14:18:52;2.88;;;1.98;;
5414;SDS011;2730;51.512;7.504;2023-03-23T14:21:26;3.92;;;2.00;;
5414;SDS011;2730;51.512;7.504;2023-03-23T14:24:02;5.72;;;2.53;;
5414;SDS011;2730;51.512;7.504;2023-03-23T14:26:32;6.70;;;2.67;;
5414;SDS011;2730;51.512;7.504;2023-03-23T14:29:00;3.20;;;2.90;;
5414;SDS011;2730;51.512;7.504;2023-03-23T14:31:29;5.00;;;2.35;;
5414;SDS011;2730;51.512;7.504;2023-03-23T14:34:00;3.05;;;2.80;;
5414;SDS011;2730;51.512;7.504;2023-03-23T14:36:29;3.20;;;2.95;;
5414;SDS011;2730;51.512;7.504;2023-03-23T14:38:59;4.53;;;2.90;;
5414;SDS011;2730;51.512;7.504;2023-03-23T14:41:29;4.28;;;3.50;;
5414;SDS011;2730;51.512;7.504;2023-03-23T14:43:57;3.63;;;3.05;;
5414;SDS011;2730;51.512;7.504;2023-03-23T14:46:26;5.97;;;4.05;;
5414;SDS011;2730;51.512;7.504;2023-03-23T14:48:55;6.38;;;3.55;;
5414;SDS011;2730;51.512;7.504;2023-03-23T14:51:25;3.65;;;3.35;;
5414;SDS011;2730;51.512;7.504;2023-03-23T14:53:52;6.00;;;4.47;;
5414;SDS011;2730;51.512;7.504;2023-03-23T14:56:20;6.35;;;4.95;;
5414;SDS011;2730;51.512;7.504;2023-03-23T14:58:53;7.35;;;5.25;;
5414;SDS011;2730;51.512;7.504;2023-03-23T15:01:22;7.22;;;4.32;;
5414;SDS011;2730;51.512;7.504;2023-03-23T15:03:52;9.88;;;5.40;;
5414;SDS011;2730;51.512;7.504;2023-03-23T15:06:23;9.63;;;4.80;;
5414;SDS011;2730;51.512;7.504;2023-03-23T15:08:53;6.18;;;5.00;;
5414;SDS011;2730;51.512;7.504;2023-03-23T15:11:23;7.72;;;4.82;;
5414;SDS011;2730;51.512;7.504;2023-03-23T15:13:53;4.72;;;4.32;;
5414;SDS011;2730;51.512;7.504;2023-03-23T15:16:24;9.27;;;4.97;;
5414;SDS011;2730;51.512;7.504;2023-03-23T15:18:53;6.70;;;4.72;;
5414;SDS011;2730;51.512;7.504;2023-03-23T15:21:24;6.80;;;4.10;;
5414;SDS011;2730;51.512;7.504;2023-03-23T15:23:53;5.55;;;4.00;;
5414;SDS011;2730;51.512;7.504;2023-03-23T15:26:25;6.72;;;3.85;;
5414;SDS011;2730;51.512;7.504;2023-03-23T15:29:02;7.97;;;3.72;;
5414;SDS011;2730;51.512;7.504;2023-03-23T15:31:38;4.45;;;3.00;;
5414;SDS011;2730;51.512;7.504;2023-03-23T15:34:11;5.35;;;2.70;;
5414;SDS011;2730;51.512;7.504;2023-03-23T15:36:43;3.30;;;2.00;;
5414;SDS011;2730;51.512;7.504;2023-03-23T15:39:11;4.95;;;2.28;;
5414;SDS011;2730;51.512;7.504;2023-03-23T15:41:45;3.53;;;2.03;;
5414;SDS011;2730;51.512;7.504;2023-03-23T15:44:19;4.25;;;2.53;;